sensor_id;sensor_type;location;lat;lon;timestamp;pressure;altitude;pressure_sealevel;temperature;humidity
24280;BME280;12395;42.808;23.408;2022-07-06T00:02:21;94884.00;;;19.04;100.00
24280;BME280;12395;42.808;23.408;2022-07-06T00:04:46;94875.84;;;18.89;100.00
24280;BME280;12395;42.808;23.408;2022-07-06T00:07:12;94877.22;;;18.97;100.00
24280;BME280;12395;42.808;23.408;2022-07-06T00:09:40;94884.72;;;18.95;100.00
24280;BME280;12395;42.808;23.408;2022-07-06T00:12:05;94878.53;;;18.89;100.00
24280;BME280;12395;42.808;23.408;2022-07-06T00:14:31;94871.28;;;18.90;100.00
24280;BME280;12395;42.808;23.408;2022-07-06T00:16:56;94877.22;;;18.97;100.00
24280;BME280;12395;42.808;23.408;2022-07-06T00:19:21;94881.50;;;18.93;100.00
24280;BME280;12395;42.808;23.408;2022-07-06T00:21:47;94865.31;;;18.83;100.00
24280;BME280;12395;42.808;23.408;2022-07-06T00:24:12;94876.13;;;18.93;100.00
24280;BME280;12395;42.808;23.408;2022-07-06T00:26:38;94872.88;;;18.91;100.00
24280;BME280;12395;42.808;23.408;2022-07-06T00:29:03;94874.25;;;18.93;100.00
24280;BME280;12395;42.808;23.408;2022-07-06T00:31:29;94876.28;;;18.76;100.00
24280;BME280;12395;42.808;23.408;2022-07-06T00:33:54;94863.63;;;18.67;100.00
24280;BME280;12395;42.808;23.408;2022-07-06T00:36:19;94889.72;;;18.76;100.00
24280;BME280;12395;42.808;23.408;2022-07-06T00:38:45;94871.13;;;18.65;100.00
24280;BME280;12395;42.808;23.408;2022-07-06T00:41:12;94887.78;;;18.72;100.00
24280;BME280;12395;42.808;23.408;2022-07-06T00:43:52;94881.88;;;18.65;100.00
24280;BME280;12395;42.808;23.408;2022-07-06T00:46:18;94875.38;;;18.61;100.00
24280;BME280;12395;42.808;23.408;2022-07-06T00:48:44;94866.44;;;18.50;100.00
24280;BME280;12395;42.808;23.408;2022-07-06T00:51:10;94870.22;;;18.54;100.00
24280;BME280;12395;42.808;23.408;2022-07-06T00:53:36;94862.97;;;18.50;100.00
24280;BME280;12395;42.808;23.408;2022-07-06T00:56:02;94827.91;;;18.29;100.00
24280;BME280;12395;42.808;23.408;2022-07-06T00:58:28;94862.44;;;18.53;100.00
24280;BME280;12395;42.808;23.408;2022-07-06T01:00:53;94862.75;;;18.56;100.00
24280;BME280;12395;42.808;23.408;2022-07-06T01:03:18;94831.53;;;18.45;100.00
24280;BME280;12395;42.808;23.408;2022-07-06T01:05:44;94845.75;;;18.45;100.00
24280;BME280;12395;42.808;23.408;2022-07-06T01:08:09;94833.63;;;18.43;100.00
24280;BME280;12395;42.808;23.408;2022-07-06T01:10:35;94827.41;;;18.37;100.00
24280;BME280;12395;42.808;23.408;2022-07-06T01:13:00;94832.81;;;18.42;100.00
24280;BME280;12395;42.808;23.408;2022-07-06T01:15:26;94822.59;;;18.39;100.00
24280;BME280;12395;42.808;23.408;2022-07-06T01:17:52;94822.31;;;18.36;100.00
24280;BME280;12395;42.808;23.408;2022-07-06T01:20:22;94819.78;;;18.24;100.00
24280;BME280;12395;42.808;23.408;2022-07-06T01:22:50;94817.66;;;18.26;100.00
24280;BME280;12395;42.808;23.408;2022-07-06T01:25:16;94811.75;;;18.24;100.00
24280;BME280;12395;42.808;23.408;2022-07-06T01:27:42;94821.94;;;18.22;100.00
24280;BME280;12395;42.808;23.408;2022-07-06T01:30:11;94802.81;;;18.09;100.00
24280;BME280;12395;42.808;23.408;2022-07-06T01:32:37;94801.66;;;18.00;100.00
24280;BME280;12395;42.808;23.408;2022-07-06T01:35:05;94815.34;;;18.03;100.00
24280;BME280;12395;42.808;23.408;2022-07-06T01:37:31;94835.75;;;18.04;100.00
24280;BME280;12395;42.808;23.408;2022-07-06T01:40:01;94832.25;;;18.04;100.00
24280;BME280;12395;42.808;23.408;2022-07-06T01:42:27;94822.81;;;17.96;100.00
24280;BME280;12395;42.808;23.408;2022-07-06T01:44:53;94831.97;;;18.05;100.00
24280;BME280;12395;42.808;23.408;2022-07-06T01:47:18;94825.50;;;18.01;100.00
24280;BME280;12395;42.808;23.408;2022-07-06T01:49:44;94831.41;;;18.03;100.00
24280;BME280;12395;42.808;23.408;2022-07-06T01:52:09;94844.97;;;18.18;100.00
24280;BME280;12395;42.808;23.408;2022-07-06T01:54:34;94852.75;;;18.20;100.00
24280;BME280;12395;42.808;23.408;2022-07-06T01:57:00;94854.88;;;18.18;100.00
24280;BME280;12395;42.808;23.408;2022-07-06T01:59:26;94840.53;;;18.02;100.00
24280;BME280;12395;42.808;23.408;2022-07-06T02:01:51;94854.97;;;17.96;100.00
24280;BME280;12395;42.808;23.408;2022-07-06T02:04:16;94849.00;;;17.89;100.00
24280;BME280;12395;42.808;23.408;2022-07-06T02:06:42;94851.06;;;17.82;100.00
24280;BME280;12395;42.808;23.408;2022-07-06T02:09:07;94840.00;;;17.73;100.00
24280;BME280;12395;42.808;23.408;2022-07-06T02:11:33;94838.63;;;17.71;100.00
24280;BME280;12395;42.808;23.408;2022-07-06T02:13:58;94860.97;;;17.82;100.00
24280;BME280;12395;42.808;23.408;2022-07-06T02:16:24;94859.00;;;17.72;100.00
24280;BME280;12395;42.808;23.408;2022-07-06T02:18:49;94847.56;;;17.55;100.00
24280;BME280;12395;42.808;23.408;2022-07-06T02:21:15;94846.63;;;17.44;100.00
24280;BME280;12395;42.808;23.408;2022-07-06T02:23:40;94841.19;;;17.39;100.00
24280;BME280;12395;42.808;23.408;2022-07-06T02:26:06;94828.44;;;17.25;100.00
24280;BME280;12395;42.808;23.408;2022-07-06T02:28:31;94841.66;;;17.31;100.00
24280;BME280;12395;42.808;23.408;2022-07-06T02:30:57;94837.88;;;17.32;100.00
24280;BME280;12395;42.808;23.408;2022-07-06T02:33:22;94848.31;;;17.50;100.00
24280;BME280;12395;42.808;23.408;2022-07-06T02:35:48;94851.84;;;17.56;100.00
24280;BME280;12395;42.808;23.408;2022-07-06T02:38:13;94849.44;;;17.54;100.00
24280;BME280;12395;42.808;23.408;2022-07-06T02:40:38;94845.31;;;17.47;100.00
24280;BME280;12395;42.808;23.408;2022-07-06T02:43:04;94843.13;;;17.44;100.00
24280;BME280;12395;42.808;23.408;2022-07-06T02:45:30;94848.88;;;17.52;100.00
24280;BME280;12395;42.808;23.408;2022-07-06T02:47:56;94849.59;;;17.48;100.00
24280;BME280;12395;42.808;23.408;2022-07-06T02:50:23;94863.13;;;17.58;100.00
24280;BME280;12395;42.808;23.408;2022-07-06T02:52:48;94847.06;;;17.58;100.00
24280;BME280;12395;42.808;23.408;2022-07-06T02:55:13;94850.50;;;17.53;100.00
24280;BME280;12395;42.808;23.408;2022-07-06T02:57:39;94850.50;;;17.53;100.00
24280;BME280;12395;42.808;23.408;2022-07-06T03:00:05;94869.91;;;17.65;100.00
24280;BME280;12395;42.808;23.408;2022-07-06T03:02:31;94856.00;;;17.68;100.00
24280;BME280;12395;42.808;23.408;2022-07-06T03:04:56;94865.78;;;17.80;100.00
24280;BME280;12395;42.808;23.408;2022-07-06T03:07:22;94862.88;;;17.86;100.00
24280;BME280;12395;42.808;23.408;2022-07-06T03:09:48;94857.19;;;17.78;100.00
24280;BME280;12395;42.808;23.408;2022-07-06T03:12:13;94872.56;;;17.87;100.00
24280;BME280;12395;42.808;23.408;2022-07-06T03:14:39;94861.03;;;17.87;100.00
24280;BME280;12395;42.808;23.408;2022-07-06T03:17:04;94861.13;;;17.97;100.00
24280;BME280;12395;42.808;23.408;2022-07-06T03:19:29;94868.47;;;18.06;100.00
24280;BME280;12395;42.808;23.408;2022-07-06T03:21:55;94870.13;;;18.12;100.00
24280;BME280;12395;42.808;23.408;2022-07-06T03:24:20;94873.69;;;18.23;100.00
24280;BME280;12395;42.808;23.408;2022-07-06T03:26:46;94872.19;;;18.32;100.00
24280;BME280;12395;42.808;23.408;2022-07-06T03:29:11;94861.59;;;18.20;100.00
24280;BME280;12395;42.808;23.408;2022-07-06T03:31:36;94874.53;;;18.28;100.00
24280;BME280;12395;42.808;23.408;2022-07-06T03:34:02;94869.19;;;18.28;100.00
24280;BME280;12395;42.808;23.408;2022-07-06T03:36:27;94839.56;;;18.13;100.00
24280;BME280;12395;42.808;23.408;2022-07-06T03:38:53;94870.38;;;18.42;100.00
24280;BME280;12395;42.808;23.408;2022-07-06T03:41:18;94877.97;;;18.51;100.00
24280;BME280;12395;42.808;23.408;2022-07-06T03:43:44;94869.66;;;18.47;100.00
24280;BME280;12395;42.808;23.408;2022-07-06T03:46:09;94873.16;;;18.48;100.00
24280;BME280;12395;42.808;23.408;2022-07-06T03:48:34;94869.88;;;18.45;100.00
24280;BME280;12395;42.808;23.408;2022-07-06T03:51:00;94876.88;;;18.46;100.00
24280;BME280;12395;42.808;23.408;2022-07-06T03:53:25;94869.38;;;18.48;100.00
24280;BME280;12395;42.808;23.408;2022-07-06T03:55:51;94876.38;;;18.50;100.00
24280;BME280;12395;42.808;23.408;2022-07-06T03:58:35;94885.22;;;18.50;100.00
24280;BME280;12395;42.808;23.408;2022-07-06T04:01:01;94889.25;;;18.53;100.00
24280;BME280;12395;42.808;23.408;2022-07-06T04:03:26;94892.56;;;18.60;100.00
24280;BME280;12395;42.808;23.408;2022-07-06T04:05:52;94871.25;;;18.48;100.00
24280;BME280;12395;42.808;23.408;2022-07-06T04:08:18;94889.78;;;18.50;100.00
24280;BME280;12395;42.808;23.408;2022-07-06T04:10:44;94883.88;;;18.48;100.00
24280;BME280;12395;42.808;23.408;2022-07-06T04:13:11;94893.59;;;18.59;100.00
24280;BME280;12395;42.808;23.408;2022-07-06T04:15:37;94894.78;;;18.73;100.00
24280;BME280;12395;42.808;23.408;2022-07-06T04:18:03;94885.75;;;18.89;100.00
24280;BME280;12395;42.808;23.408;2022-07-06T04:20:28;94883.13;;;18.94;100.00
24280;BME280;12395;42.808;23.408;2022-07-06T04:22:53;94900.59;;;19.01;100.00
24280;BME280;12395;42.808;23.408;2022-07-06T04:25:19;94916.03;;;19.16;100.00
24280;BME280;12395;42.808;23.408;2022-07-06T04:27:44;94911.75;;;19.20;100.00
24280;BME280;12395;42.808;23.408;2022-07-06T04:30:10;94912.31;;;19.27;100.00
24280;BME280;12395;42.808;23.408;2022-07-06T04:32:36;94924.50;;;19.40;100.00
24280;BME280;12395;42.808;23.408;2022-07-06T04:35:04;94915.09;;;19.37;100.00
24280;BME280;12395;42.808;23.408;2022-07-06T04:37:30;94910.78;;;19.36;100.00
24280;BME280;12395;42.808;23.408;2022-07-06T04:39:55;94913.50;;;19.46;100.00
24280;BME280;12395;42.808;23.408;2022-07-06T04:42:20;94922.94;;;19.49;100.00
24280;BME280;12395;42.808;23.408;2022-07-06T04:44:46;94916.34;;;19.24;100.00
24280;BME280;12395;42.808;23.408;2022-07-06T04:47:12;94889.63;;;19.08;100.00
24280;BME280;12395;42.808;23.408;2022-07-06T04:49:38;94939.28;;;19.37;100.00
24280;BME280;12395;42.808;23.408;2022-07-06T04:52:04;94938.72;;;19.35;100.00
24280;BME280;12395;42.808;23.408;2022-07-06T04:54:29;94936.06;;;19.40;100.00
24280;BME280;12395;42.808;23.408;2022-07-06T04:56:55;94930.09;;;19.33;100.00
24280;BME280;12395;42.808;23.408;2022-07-06T04:59:21;94931.34;;;19.20;100.00
24280;BME280;12395;42.808;23.408;2022-07-06T05:01:47;94943.44;;;19.23;100.00
24280;BME280;12395;42.808;23.408;2022-07-06T05:04:13;94914.91;;;19.07;100.00
24280;BME280;12395;42.808;23.408;2022-07-06T05:06:39;94952.38;;;19.29;100.00
24280;BME280;12395;42.808;23.408;2022-07-06T05:09:05;94955.84;;;19.29;100.00
24280;BME280;12395;42.808;23.408;2022-07-06T05:11:31;94952.91;;;19.31;100.00
24280;BME280;12395;42.808;23.408;2022-07-06T05:13:57;94942.09;;;19.20;100.00
24280;BME280;12395;42.808;23.408;2022-07-06T05:16:23;94955.59;;;19.31;100.00
24280;BME280;12395;42.808;23.408;2022-07-06T05:18:48;94951.00;;;19.31;100.00
24280;BME280;12395;42.808;23.408;2022-07-06T05:21:14;94958.38;;;19.41;100.00
24280;BME280;12395;42.808;23.408;2022-07-06T05:23:40;94962.19;;;19.50;100.00
24280;BME280;12395;42.808;23.408;2022-07-06T05:26:05;94946.03;;;19.45;100.00
24280;BME280;12395;42.808;23.408;2022-07-06T05:28:31;94980.84;;;19.76;100.00
24280;BME280;12395;42.808;23.408;2022-07-06T05:30:57;94978.47;;;19.80;100.00
24280;BME280;12395;42.808;23.408;2022-07-06T05:33:22;94988.19;;;19.96;100.00
24280;BME280;12395;42.808;23.408;2022-07-06T05:35:47;94983.63;;;19.96;100.00
24280;BME280;12395;42.808;23.408;2022-07-06T05:38:13;94996.81;;;19.98;100.00
24280;BME280;12395;42.808;23.408;2022-07-06T05:40:39;94984.22;;;20.04;100.00
24280;BME280;12395;42.808;23.408;2022-07-06T05:43:04;94971.81;;;20.02;100.00
24280;BME280;12395;42.808;23.408;2022-07-06T05:45:29;94985.28;;;20.13;100.00
24280;BME280;12395;42.808;23.408;2022-07-06T05:47:55;94981.28;;;20.15;100.00
24280;BME280;12395;42.808;23.408;2022-07-06T05:50:39;94995.59;;;20.21;100.00
24280;BME280;12395;42.808;23.408;2022-07-06T05:53:05;94974.00;;;20.11;100.00
24280;BME280;12395;42.808;23.408;2022-07-06T05:55:37;94982.34;;;20.14;100.00
24280;BME280;12395;42.808;23.408;2022-07-06T05:58:02;94986.38;;;20.17;100.00
24280;BME280;12395;42.808;23.408;2022-07-06T06:00:28;94978.91;;;20.34;100.00
24280;BME280;12395;42.808;23.408;2022-07-06T06:02:54;94973.03;;;20.47;100.00
24280;BME280;12395;42.808;23.408;2022-07-06T06:05:20;94987.34;;;20.72;100.00
24280;BME280;12395;42.808;23.408;2022-07-06T06:07:46;94993.28;;;20.85;100.00
24280;BME280;12395;42.808;23.408;2022-07-06T06:10:18;94995.69;;;20.96;98.19
24280;BME280;12395;42.808;23.408;2022-07-06T06:12:45;94984.38;;;20.79;96.87
24280;BME280;12395;42.808;23.408;2022-07-06T06:15:11;94993.00;;;20.96;98.82
24280;BME280;12395;42.808;23.408;2022-07-06T06:17:37;94989.78;;;21.04;98.34
24280;BME280;12395;42.808;23.408;2022-07-06T06:20:07;94995.75;;;21.06;94.85
24280;BME280;12395;42.808;23.408;2022-07-06T06:22:53;94990.88;;;21.13;96.49
24280;BME280;12395;42.808;23.408;2022-07-06T06:25:26;94975.78;;;21.22;96.39
24280;BME280;12395;42.808;23.408;2022-07-06T06:27:52;95001.34;;;21.45;97.28
24280;BME280;12395;42.808;23.408;2022-07-06T06:30:18;94992.97;;;21.57;96.10
24280;BME280;12395;42.808;23.408;2022-07-06T06:32:44;94986.44;;;21.73;92.20
24280;BME280;12395;42.808;23.408;2022-07-06T06:35:09;94990.25;;;21.77;90.19
24280;BME280;12395;42.808;23.408;2022-07-06T06:37:35;94998.03;;;21.93;92.42
24280;BME280;12395;42.808;23.408;2022-07-06T06:40:01;94996.06;;;22.14;91.54
24280;BME280;12395;42.808;23.408;2022-07-06T06:42:28;95001.13;;;22.25;85.99
24280;BME280;12395;42.808;23.408;2022-07-06T06:44:57;94978.97;;;22.28;85.54
24280;BME280;12395;42.808;23.408;2022-07-06T06:47:22;94976.66;;;22.61;84.41
24280;BME280;12395;42.808;23.408;2022-07-06T06:49:48;94970.34;;;22.75;83.98
24280;BME280;12395;42.808;23.408;2022-07-06T06:52:13;94989.13;;;22.90;80.32
24280;BME280;12395;42.808;23.408;2022-07-06T06:54:39;94967.72;;;22.99;80.17
24280;BME280;12395;42.808;23.408;2022-07-06T06:57:05;94992.97;;;23.18;77.94
24280;BME280;12395;42.808;23.408;2022-07-06T06:59:30;94971.31;;;22.89;76.66
24280;BME280;12395;42.808;23.408;2022-07-06T07:01:55;94968.22;;;22.72;80.56
24280;BME280;12395;42.808;23.408;2022-07-06T07:04:21;94962.25;;;23.09;78.62
24280;BME280;12395;42.808;23.408;2022-07-06T07:06:47;94978.59;;;23.23;75.34
24280;BME280;12395;42.808;23.408;2022-07-06T07:09:12;94994.03;;;23.56;76.08
24280;BME280;12395;42.808;23.408;2022-07-06T07:11:38;94999.72;;;23.78;78.10
24280;BME280;12395;42.808;23.408;2022-07-06T07:14:04;94978.38;;;23.76;73.17
24280;BME280;12395;42.808;23.408;2022-07-06T07:16:29;94994.38;;;23.73;72.79
24280;BME280;12395;42.808;23.408;2022-07-06T07:18:55;94976.38;;;23.30;74.18
24280;BME280;12395;42.808;23.408;2022-07-06T07:21:20;94974.19;;;23.37;75.50
24280;BME280;12395;42.808;23.408;2022-07-06T07:23:46;94982.41;;;23.22;78.21
24280;BME280;12395;42.808;23.408;2022-07-06T07:26:11;94961.97;;;23.11;77.23
24280;BME280;12395;42.808;23.408;2022-07-06T07:28:36;94977.50;;;23.29;77.71
24280;BME280;12395;42.808;23.408;2022-07-06T07:31:04;94992.97;;;23.18;75.21
24280;BME280;12395;42.808;23.408;2022-07-06T07:33:30;94988.34;;;23.24;79.57
24280;BME280;12395;42.808;23.408;2022-07-06T07:35:55;94990.47;;;23.60;76.98
24280;BME280;12395;42.808;23.408;2022-07-06T07:38:21;94979.56;;;23.89;76.00
24280;BME280;12395;42.808;23.408;2022-07-06T07:40:46;94983.97;;;23.85;74.43
24280;BME280;12395;42.808;23.408;2022-07-06T07:43:11;94980.94;;;23.87;73.07
24280;BME280;12395;42.808;23.408;2022-07-06T07:45:37;94985.34;;;24.06;73.92
24280;BME280;12395;42.808;23.408;2022-07-06T07:48:03;94954.31;;;23.99;73.13
24280;BME280;12395;42.808;23.408;2022-07-06T07:50:28;94975.84;;;24.09;72.31
24280;BME280;12395;42.808;23.408;2022-07-06T07:52:55;94976.78;;;23.99;71.63
24280;BME280;12395;42.808;23.408;2022-07-06T07:55:20;94969.41;;;24.05;71.91
24280;BME280;12395;42.808;23.408;2022-07-06T07:57:46;94970.97;;;24.11;73.60
24280;BME280;12395;42.808;23.408;2022-07-06T08:00:12;94958.03;;;24.03;72.53
24280;BME280;12395;42.808;23.408;2022-07-06T08:02:38;94972.63;;;24.07;72.99
24280;BME280;12395;42.808;23.408;2022-07-06T08:05:04;94965.44;;;23.97;73.60
24280;BME280;12395;42.808;23.408;2022-07-06T08:07:29;94974.97;;;24.37;72.63
24280;BME280;12395;42.808;23.408;2022-07-06T08:09:55;94977.34;;;24.20;70.90
24280;BME280;12395;42.808;23.408;2022-07-06T08:12:20;94962.75;;;24.58;68.02
24280;BME280;12395;42.808;23.408;2022-07-06T08:14:45;94960.19;;;25.04;68.09
24280;BME280;12395;42.808;23.408;2022-07-06T08:17:11;94978.13;;;25.32;67.27
24280;BME280;12395;42.808;23.408;2022-07-06T08:19:37;94981.13;;;25.17;67.47
24280;BME280;12395;42.808;23.408;2022-07-06T08:22:02;94990.28;;;25.02;67.54
24280;BME280;12395;42.808;23.408;2022-07-06T08:24:33;94988.38;;;25.03;66.83
24280;BME280;12395;42.808;23.408;2022-07-06T08:26:58;94989.06;;;24.95;68.50
24280;BME280;12395;42.808;23.408;2022-07-06T08:29:24;94987.28;;;24.67;68.85
24280;BME280;12395;42.808;23.408;2022-07-06T08:31:49;94968.59;;;24.46;69.28
24280;BME280;12395;42.808;23.408;2022-07-06T08:34:15;94982.16;;;24.65;68.56
24280;BME280;12395;42.808;23.408;2022-07-06T08:36:40;94991.25;;;24.93;68.20
24280;BME280;12395;42.808;23.408;2022-07-06T08:39:06;94981.03;;;25.22;66.43
24280;BME280;12395;42.808;23.408;2022-07-06T08:41:33;94977.03;;;25.33;66.10
24280;BME280;12395;42.808;23.408;2022-07-06T08:44:01;94969.41;;;25.35;65.39
24280;BME280;12395;42.808;23.408;2022-07-06T08:46:27;94976.16;;;25.38;65.78
24280;BME280;12395;42.808;23.408;2022-07-06T08:48:53;94963.75;;;25.50;65.55
24280;BME280;12395;42.808;23.408;2022-07-06T08:51:20;94972.63;;;25.37;66.58
24280;BME280;12395;42.808;23.408;2022-07-06T08:53:46;94983.69;;;25.41;66.08
24280;BME280;12395;42.808;23.408;2022-07-06T08:56:15;94968.75;;;25.43;64.68
24280;BME280;12395;42.808;23.408;2022-07-06T08:58:41;94986.50;;;25.68;63.92
24280;BME280;12395;42.808;23.408;2022-07-06T09:01:09;94977.38;;;25.45;63.04
24280;BME280;12395;42.808;23.408;2022-07-06T09:03:34;94976.22;;;25.51;64.27
24280;BME280;12395;42.808;23.408;2022-07-06T09:06:02;94985.28;;;25.74;65.00
24280;BME280;12395;42.808;23.408;2022-07-06T09:08:30;94977.25;;;25.82;63.38
24280;BME280;12395;42.808;23.408;2022-07-06T09:10:57;94969.03;;;26.15;62.75
24280;BME280;12395;42.808;23.408;2022-07-06T09:13:22;94978.19;;;25.91;65.11
24280;BME280;12395;42.808;23.408;2022-07-06T09:15:48;94984.88;;;25.94;63.63
24280;BME280;12395;42.808;23.408;2022-07-06T09:18:14;94984.69;;;25.77;64.13
24280;BME280;12395;42.808;23.408;2022-07-06T09:20:42;94963.75;;;25.50;64.89
24280;BME280;12395;42.808;23.408;2022-07-06T09:23:08;94985.97;;;25.52;65.64
24280;BME280;12395;42.808;23.408;2022-07-06T09:25:34;94976.81;;;25.48;64.55
24280;BME280;12395;42.808;23.408;2022-07-06T09:28:01;94985.34;;;25.23;64.24
24280;BME280;12395;42.808;23.408;2022-07-06T09:30:28;94976.44;;;25.04;65.47
24280;BME280;12395;42.808;23.408;2022-07-06T09:32:57;94982.97;;;25.35;64.38
24280;BME280;12395;42.808;23.408;2022-07-06T09:35:32;94990.78;;;25.55;64.26
24280;BME280;12395;42.808;23.408;2022-07-06T09:38:06;94973.13;;;25.39;65.25
24280;BME280;12395;42.808;23.408;2022-07-06T09:40:40;94976.97;;;25.38;65.47
24280;BME280;12395;42.808;23.408;2022-07-06T09:43:15;94991.91;;;25.36;65.88
24280;BME280;12395;42.808;23.408;2022-07-06T09:45:44;94965.16;;;24.97;66.55
24280;BME280;12395;42.808;23.408;2022-07-06T09:48:16;94971.91;;;24.81;67.49
24280;BME280;12395;42.808;23.408;2022-07-06T09:50:57;94975.22;;;24.78;67.95
24280;BME280;12395;42.808;23.408;2022-07-06T09:53:24;94970.00;;;24.63;66.88
24280;BME280;12395;42.808;23.408;2022-07-06T09:55:52;94961.28;;;24.47;66.73
24280;BME280;12395;42.808;23.408;2022-07-06T09:58:19;94955.78;;;24.33;67.64
24280;BME280;12395;42.808;23.408;2022-07-06T10:00:45;94957.59;;;24.38;68.29
24280;BME280;12395;42.808;23.408;2022-07-06T10:03:12;94965.81;;;24.51;68.75
24280;BME280;12395;42.808;23.408;2022-07-06T10:05:43;94965.66;;;24.43;68.24
24280;BME280;12395;42.808;23.408;2022-07-06T10:08:10;94950.50;;;24.23;68.68
24280;BME280;12395;42.808;23.408;2022-07-06T10:10:37;94947.41;;;24.11;68.22
24280;BME280;12395;42.808;23.408;2022-07-06T10:13:03;94954.22;;;24.04;70.10
24280;BME280;12395;42.808;23.408;2022-07-06T10:15:31;94971.94;;;23.96;70.16
24280;BME280;12395;42.808;23.408;2022-07-06T10:18:03;94957.53;;;23.77;70.68
24280;BME280;12395;42.808;23.408;2022-07-06T10:20:31;94959.13;;;23.78;72.81
24280;BME280;12395;42.808;23.408;2022-07-06T10:23:01;94914.38;;;23.43;72.61
24280;BME280;12395;42.808;23.408;2022-07-06T10:25:27;94950.41;;;23.62;74.17
24280;BME280;12395;42.808;23.408;2022-07-06T10:27:54;94963.63;;;23.64;73.39
24280;BME280;12395;42.808;23.408;2022-07-06T10:30:21;94955.19;;;23.70;74.40
24280;BME280;12395;42.808;23.408;2022-07-06T10:32:49;94953.84;;;23.68;72.41
24280;BME280;12395;42.808;23.408;2022-07-06T10:35:18;94953.22;;;23.76;71.29
24280;BME280;12395;42.808;23.408;2022-07-06T10:37:45;94948.47;;;23.87;70.54
24280;BME280;12395;42.808;23.408;2022-07-06T10:40:14;94955.47;;;23.93;69.90
24280;BME280;12395;42.808;23.408;2022-07-06T10:43:00;94942.03;;;24.06;71.12
24280;BME280;12395;42.808;23.408;2022-07-06T10:50:46;94951.69;;;24.55;69.46
24280;BME280;12395;42.808;23.408;2022-07-06T10:53:28;94954.25;;;24.65;69.69
24280;BME280;12395;42.808;23.408;2022-07-06T10:55:56;94948.16;;;24.73;66.60
24280;BME280;12395;42.808;23.408;2022-07-06T11:01:11;94940.84;;;25.24;68.28
24280;BME280;12395;42.808;23.408;2022-07-06T11:08:50;94937.41;;;25.64;63.80
24280;BME280;12395;42.808;23.408;2022-07-06T11:11:20;94943.88;;;25.68;62.59
24280;BME280;12395;42.808;23.408;2022-07-06T11:13:51;94941.88;;;25.87;63.06
24280;BME280;12395;42.808;23.408;2022-07-06T11:16:18;94939.53;;;25.67;60.77
24280;BME280;12395;42.808;23.408;2022-07-06T11:18:49;94945.69;;;25.86;61.13
24280;BME280;12395;42.808;23.408;2022-07-06T11:21:22;94942.06;;;26.18;63.08
24280;BME280;12395;42.808;23.408;2022-07-06T11:23:49;94936.22;;;26.25;60.67
24280;BME280;12395;42.808;23.408;2022-07-06T11:26:16;94930.38;;;26.31;60.01
24280;BME280;12395;42.808;23.408;2022-07-06T11:28:45;94926.00;;;26.22;59.37
24280;BME280;12395;42.808;23.408;2022-07-06T11:31:11;94931.13;;;26.10;58.31
24280;BME280;12395;42.808;23.408;2022-07-06T11:33:36;94912.78;;;25.88;60.13
24280;BME280;12395;42.808;23.408;2022-07-06T11:36:15;94921.44;;;25.63;61.71
24280;BME280;12395;42.808;23.408;2022-07-06T11:38:42;94918.13;;;25.52;60.93
24280;BME280;12395;42.808;23.408;2022-07-06T11:41:08;94913.72;;;25.43;61.85
24280;BME280;12395;42.808;23.408;2022-07-06T11:43:34;94907.38;;;25.15;61.89
24280;BME280;12395;42.808;23.408;2022-07-06T11:45:59;94898.41;;;25.01;62.63
24280;BME280;12395;42.808;23.408;2022-07-06T11:48:25;94893.16;;;24.91;62.61
24280;BME280;12395;42.808;23.408;2022-07-06T11:51:01;94902.75;;;25.02;63.41
24280;BME280;12395;42.808;23.408;2022-07-06T11:53:26;94898.09;;;25.02;61.73
24280;BME280;12395;42.808;23.408;2022-07-06T11:55:52;94903.56;;;25.16;64.14
24280;BME280;12395;42.808;23.408;2022-07-06T11:58:22;94895.50;;;25.11;62.47
24280;BME280;12395;42.808;23.408;2022-07-06T12:01:07;94896.31;;;24.79;61.45
24280;BME280;12395;42.808;23.408;2022-07-06T12:03:33;94902.06;;;24.78;61.25
24280;BME280;12395;42.808;23.408;2022-07-06T12:06:23;94892.94;;;24.87;61.34
24280;BME280;12395;42.808;23.408;2022-07-06T12:11:17;94888.91;;;25.17;60.84
24280;BME280;12395;42.808;23.408;2022-07-06T12:13:44;94879.25;;;25.11;60.75
24280;BME280;12395;42.808;23.408;2022-07-06T12:16:14;94901.13;;;25.01;61.69
24280;BME280;12395;42.808;23.408;2022-07-06T12:18:44;94860.63;;;24.40;62.58
24280;BME280;12395;42.808;23.408;2022-07-06T12:21:13;94886.59;;;24.60;61.06
24280;BME280;12395;42.808;23.408;2022-07-06T12:23:45;94878.31;;;24.70;64.21
24280;BME280;12395;42.808;23.408;2022-07-06T12:26:12;94899.34;;;24.59;63.35
24280;BME280;12395;42.808;23.408;2022-07-06T12:28:38;94905.72;;;24.49;63.78
24280;BME280;12395;42.808;23.408;2022-07-06T12:31:04;94894.38;;;24.47;64.19
24280;BME280;12395;42.808;23.408;2022-07-06T12:33:30;94899.09;;;24.56;65.05
24280;BME280;12395;42.808;23.408;2022-07-06T12:35:55;94901.91;;;24.50;64.29
24280;BME280;12395;42.808;23.408;2022-07-06T12:38:25;94885.53;;;24.42;63.71
24280;BME280;12395;42.808;23.408;2022-07-06T12:40:51;94888.00;;;24.57;64.80
24280;BME280;12395;42.808;23.408;2022-07-06T12:46:27;94890.44;;;24.91;66.05
24280;BME280;12395;42.808;23.408;2022-07-06T12:48:55;94873.69;;;25.02;64.90
24280;BME280;12395;42.808;23.408;2022-07-06T12:51:21;94864.75;;;25.34;61.65
24280;BME280;12395;42.808;23.408;2022-07-06T12:53:46;94844.44;;;25.45;60.50
24280;BME280;12395;42.808;23.408;2022-07-06T12:56:13;94862.03;;;25.88;58.91
24280;BME280;12395;42.808;23.408;2022-07-06T12:58:39;94844.72;;;26.12;58.70
24280;BME280;12395;42.808;23.408;2022-07-06T13:01:04;94831.56;;;26.41;56.16
24280;BME280;12395;42.808;23.408;2022-07-06T13:03:40;94849.56;;;26.72;55.47